Union Manta — ORKJ — position and weather

sailwx.info

Track history (hours):
 
Tides and Currents Weather Stations Pressure Air Temp Water Temp Dewpoint Dewpoint Depression Visibility Wind Speed Wind Dir Waves Ship Positions

Union Manta

Last reported at 2016-Jul-01 04:33 UTC. Time now 2016-Jul-01 06:23 UTC.
Position N 53°33' E 006°42'.

Length 75 m; draft 6.6 m.

Type: Tug. MMSI: 205340000.

Date/timePositionNaut miles runAvg speedWind from/ knotsBaromVisibWave heightAir tempDewpointWater temp
2016-Jul-01 04:33N 53°33' E 006°42'0 0.0
2016-Jul-01 03:30N 53°33' E 006°42'0 0.0
2016-Jul-01 02:33N 53°33' E 006°42'0 0.1
2016-Jul-01 01:33N 53°33' E 006°42'0 0.0
2016-Jul-01 00:30N 53°33' E 006°42'0 0.0
2016-Jun-30 23:33N 53°33' E 006°41'0 0.0
2016-Jun-30 22:24N 53°33' E 006°41'0 0.0
2016-Jun-30 21:33N 53°33' E 006°41'0 0.0
2016-Jun-30 20:30N 53°33' E 006°42'0 0.1
2016-Jun-30 19:33N 53°33' E 006°42'0 0.1
2016-Jun-30 18:27N 53°33' E 006°42'0 0.0
2016-Jun-30 17:30N 53°33' E 006°42'0 0.1
2016-Jun-30 16:33N 53°33' E 006°42'9 9.4
2016-Jun-30 15:34N 53°37' E 006°27'1111.2
2016-Jun-30 14:33N 53°40' E 006°09'1010.4
2016-Jun-30 13:33N 53°49' E 006°01'2 1.8
2016-Jun-30 12:33N 53°50' E 005°59'0 0.0
2016-Jun-30 11:33N 53°50' E 005°59'0 0.0
2016-Jun-30 10:33N 53°50' E 005°59'0 0.1
2016-Jun-30 09:33N 53°50' E 005°59'1 0.7
2016-Jun-30 08:33N 53°51' E 005°60'0 0.0
2016-Jun-30 07:33N 53°51' E 005°60'1 0.5
2016-Jun-30 06:29N 53°51' E 005°59'0 0.0
2016-Jun-30 05:29N 53°51' E 005°59'0 0.0
2016-Jun-30 04:33N 53°51' E 005°59'0 0.0
2016-Jun-30 03:15N 53°51' E 005°59'0 0.0
2016-Jun-30 02:30N 53°51' E 005°59'0 0.0
2016-Jun-30 01:32N 53°51' E 005°59'0 0.0
2016-Jun-30 00:32N 53°51' E 005°59'0 0.0
2016-Jun-29 23:29N 53°51' E 005°59'0 0.0
2016-Jun-29 22:32N 53°51' E 005°59'0 0.0
2016-Jun-29 21:31N 53°51' E 005°59'0 0.0
2016-Jun-29 20:29N 53°51' E 005°59'0 0.0
2016-Jun-29 19:28N 53°51' E 005°59'0 0.1
2016-Jun-29 18:31N 53°51' E 005°59'0 0.0
2016-Jun-29 17:22N 53°51' E 005°59'0 0.0
2016-Jun-29 16:19N 53°51' E 005°59'0 0.0
2016-Jun-29 15:04N 53°51' E 005°59'0 0.0
2016-Jun-29 14:31N 53°51' E 005°59'0 0.0
2016-Jun-29 13:28N 53°51' E 005°59'0 0.0
2016-Jun-29 12:16N 53°51' E 005°59'0 0.0
2016-Jun-29 11:19N 53°51' E 005°59'0 0.0
2016-Jun-29 10:25N 53°51' E 005°59'0 0.0
2016-Jun-29 03:07N 53°51' E 005°59'0 0.0
2016-Jun-28 22:25N 53°51' E 005°59'0 0.0
2016-Jun-28 20:25N 53°51' E 005°59'0 0.0
2016-Jun-28 19:13N 53°51' E 005°59'0 0.0
2016-Jun-28 18:31N 53°51' E 005°59'0 0.0
2016-Jun-28 13:27N 53°51' E 005°59'1 1.0
2016-Jun-28 12:32N 53°50' E 005°59'1010.1
2016-Jun-28 11:33N 53°42' E 006°07'1110.9
2016-Jun-28 10:32N 53°37' E 006°24'1 1.0
2016-Jun-28 09:33N 53°37' E 006°23'1211.2
2016-Jun-28 08:30N 53°42' E 006°05'9 7.9
2016-Jun-28 07:25N 53°50' E 005°59'1 0.9
2016-Jun-28 06:29N 53°49' E 005°59'0 0.1
2016-Jun-28 03:15N 53°49' E 005°60'0 0.0
2016-Jun-28 02:12N 53°49' E 005°60'0 0.0
2016-Jun-28 01:18N 53°49' E 005°60'0 0.0
2016-Jun-28 00:09N 53°49' E 005°60'0 0.0
2016-Jun-27 23:24N 53°49' E 005°60'0 0.0
2016-Jun-27 20:12N 53°49' E 005°60'0 0.0
2016-Jun-27 18:24N 53°49' E 005°60'0 0.0
2016-Jun-27 16:30N 53°49' E 005°60'0 0.0
2016-Jun-27 15:33N 53°49' E 005°60'0 0.0
2016-Jun-27 14:27N 53°49' E 005°60'1 1.1
2016-Jun-27 13:33N 53°50' E 005°59'3 2.5
2016-Jun-27 12:31N 53°52' E 005°57'1 0.6
2016-Jun-27 11:31N 53°52' E 005°56'0 0.1
2016-Jun-27 10:33N 53°52' E 005°56'0 0.3
2016-Jun-27 09:32N 53°51' E 005°56'1 0.9
2016-Jun-27 08:31N 53°51' E 005°55'1 1.2
2016-Jun-27 07:32N 53°52' E 005°56'2 1.8
2016-Jun-27 06:29N 53°51' E 005°59'1 0.4
2016-Jun-27 04:07N 53°50' E 005°59'0 0.5
2016-Jun-27 03:33N 53°50' E 005°59'0 0.0
2016-Jun-27 02:32N 53°50' E 005°59'1 0.9
2016-Jun-27 01:22N 53°49' E 005°60'0 0.0
2016-Jun-26 23:28N 53°49' E 005°60'0 0.0
2016-Jun-26 22:31N 53°49' E 005°60'0 0.0
2016-Jun-26 21:28N 53°49' E 005°60'0 0.0
2016-Jun-26 20:28N 53°49' E 005°60'0 0.0
2016-Jun-26 16:31N 53°49' E 005°60'0 0.0
2016-Jun-26 13:07N 53°49' E 005°60'0 0.0
2016-Jun-26 12:31N 53°49' E 005°60'0 0.0
2016-Jun-26 10:10N 53°49' E 005°60'0 0.0
2016-Jun-26 09:22N 53°49' E 005°60'0 0.0
2016-Jun-26 00:13N 53°49' E 005°59'0 0.0
2016-Jun-25 22:31N 53°49' E 005°59'0 0.0
2016-Jun-25 21:25N 53°49' E 005°59'0 0.0
2016-Jun-25 20:19N 53°49' E 005°59'0 0.0
2016-Jun-25 18:13N 53°49' E 005°59'0 0.0
2016-Jun-25 17:19N 53°49' E 005°59'0 0.0
2016-Jun-25 16:31N 53°49' E 005°59'0 0.0
2016-Jun-25 11:25N 53°49' E 005°59'0 0.0
2016-Jun-25 10:07N 53°49' E 005°59'0 0.0
2016-Jun-25 09:28N 53°49' E 005°59'0 0.0
2016-Jun-25 08:13N 53°49' E 005°59'0 0.0
2016-Jun-25 07:31N 53°49' E 005°59'0 0.0
2016-Jun-25 06:27N 53°49' E 005°59'1 1.1
2016-Jun-25 05:23N 53°49' E 005°57'1 0.9
2016-Jun-25 04:33N 53°50' E 005°58'2 1.5
2016-Jun-25 03:33N 53°49' E 006°00'0 0.0
2016-Jun-25 02:33N 53°49' E 006°01'0 0.0
2016-Jun-25 01:27N 53°49' E 006°01'0 0.0
2016-Jun-25 00:33N 53°49' E 006°01'0 0.0
2016-Jun-24 23:30N 53°49' E 006°01'0 0.0
2016-Jun-24 22:30N 53°49' E 006°01'0 0.0
2016-Jun-24 21:30N 53°49' E 006°01'0 0.0
2016-Jun-24 20:30N 53°49' E 006°01'0 0.0
2016-Jun-24 19:27N 53°49' E 006°01'0 0.0
2016-Jun-24 18:33N 53°49' E 006°00'0 0.0
2016-Jun-24 17:27N 53°49' E 006°00'0 0.0
2016-Jun-24 15:33N 53°49' E 006°01'0 0.0
2016-Jun-24 12:33N 53°49' E 006°01'1 1.0
2016-Jun-24 11:33N 53°49' E 005°59'0 0.1
2016-Jun-24 10:32N 53°50' E 005°59'0 0.2
2016-Jun-24 09:31N 53°49' E 005°59'0 0.4
2016-Jun-24 08:33N 53°50' E 005°58'0 0.4
2016-Jun-24 07:33N 53°49' E 005°58'1 0.7
2016-Jun-24 06:32N 53°50' E 005°57'0 0.0
2016-Jun-24 04:32N 53°49' E 005°57'0 0.0
2016-Jun-24 03:32N 53°49' E 005°57'0 0.0
2016-Jun-24 02:32N 53°49' E 005°57'0 0.0
2016-Jun-24 01:25N 53°49' E 005°57'0 0.0
2016-Jun-24 00:32N 53°49' E 005°57'0 0.0
2016-Jun-23 23:17N 53°49' E 005°57'0 0.0
2016-Jun-23 22:26N 53°49' E 005°57'0 0.0
2016-Jun-23 21:32N 53°49' E 005°57'0 0.0
2016-Jun-23 20:28N 53°49' E 005°57'0 0.0
2016-Jun-23 19:32N 53°49' E 005°57'0 0.0
2016-Jun-23 18:10N 53°49' E 005°57'0 0.0
2016-Jun-23 17:25N 53°49' E 005°57'0 0.0
2016-Jun-23 16:31N 53°49' E 005°57'0 0.0
2016-Jun-23 15:22N 53°49' E 005°57'0 0.0
2016-Jun-23 14:31N 53°49' E 005°57'0 0.0
2016-Jun-23 13:32N 53°49' E 005°57'0 0.0
2016-Jun-23 12:29N 53°49' E 005°57'0 0.0
2016-Jun-23 11:23N 53°49' E 005°57'0 0.0
2016-Jun-23 10:32N 53°49' E 005°57'0 0.0
2016-Jun-23 09:32N 53°49' E 005°57'0 0.0
2016-Jun-23 08:31N 53°49' E 005°57'0 0.0
2016-Jun-23 07:31N 53°49' E 005°57'1 0.6
2016-Jun-23 05:33N 53°49' E 005°59'1 0.8
2016-Jun-23 04:33N 53°50' E 005°59'1 0.5
2016-Jun-23 03:34N 53°49' E 005°58'0 0.5
2016-Jun-23 02:33N 53°49' E 005°58'1 1.1
2016-Jun-23 01:33N 53°50' E 005°59'0 0.2
2016-Jun-23 00:33N 53°50' E 005°59'1 0.5
2016-Jun-22 23:33N 53°50' E 005°60'2 2.0
2016-Jun-22 22:33N 53°51' E 006°03'2 2.2
2016-Jun-22 21:34N 53°52' E 006°06'2 1.9
2016-Jun-22 20:34N 53°53' E 006°09'2 2.0
2016-Jun-22 19:33N 53°54' E 006°12'2 2.3
2016-Jun-22 18:33N 53°56' E 006°14'3 3.0
2016-Jun-22 17:34N 53°57' E 006°18'3 3.5
2016-Jun-22 16:33N 53°59' E 006°23'1 1.5
2016-Jun-22 15:33N 53°59' E 006°26'1 0.5
2016-Jun-22 14:33N 53°60' E 006°25'0 0.1
2016-Jun-22 13:33N 53°59' E 006°25'0 0.0
2016-Jun-22 12:33N 53°59' E 006°25'0 0.1
2016-Jun-22 11:33N 53°60' E 006°25'0 0.1
2016-Jun-22 10:33N 53°60' E 006°25'0 0.3
2016-Jun-22 09:33N 53°60' E 006°25'1 0.5
2016-Jun-22 08:33N 54°00' E 006°25'1 0.8
2016-Jun-22 07:33N 53°60' E 006°25'0 0.0
2016-Jun-22 06:32N 53°60' E 006°25'1 1.3
2016-Jun-22 05:33N 54°01' E 006°24'1 1.3
2016-Jun-22 04:33N 53°60' E 006°25'0 0.2
2016-Jun-22 03:34N 53°60' E 006°25'1 1.1
2016-Jun-22 02:28N 53°59' E 006°23'0 0.0
2016-Jun-22 01:31N 53°59' E 006°23'0 0.0
2016-Jun-22 00:31N 53°59' E 006°23'0 0.0
2016-Jun-21 23:25N 53°59' E 006°23'0 0.0
2016-Jun-21 22:31N 53°59' E 006°23'0 0.0
2016-Jun-21 21:31N 53°59' E 006°23'0 0.0
2016-Jun-21 20:31N 53°59' E 006°23'0 0.0
2016-Jun-21 19:25N 53°59' E 006°23'0 0.0
2016-Jun-21 18:22N 53°59' E 006°23'0 0.0
2016-Jun-21 17:31N 53°59' E 006°23'0 0.0
2016-Jun-21 16:19N 53°59' E 006°23'0 0.0
2016-Jun-21 15:28N 53°59' E 006°23'0 0.0
2016-Jun-21 14:25N 53°59' E 006°23'0 0.0
2016-Jun-21 13:28N 53°59' E 006°23'0 0.0
2016-Jun-21 12:31N 53°59' E 006°23'2 1.8
2016-Jun-21 11:33N 53°59' E 006°26'0 0.3
2016-Jun-21 10:33N 53°59' E 006°25'1 0.9
2016-Jun-21 09:34N 53°59' E 006°25'0 0.1
2016-Jun-21 08:33N 53°59' E 006°25'0 0.1
2016-Jun-21 07:33N 53°59' E 006°25'1 0.4
2016-Jun-21 05:33N 53°59' E 006°24'  
Track history (hours):
 
Tides and Currents Weather Stations Pressure Air Temp Water Temp Dewpoint Dewpoint Depression Visibility Wind Speed Wind Dir Waves Ship Positions

Union Manta

Last reported at 2016-Jul-01 04:33 UTC. Time now 2016-Jul-01 06:23 UTC.
Position N 53°33' E 006°42'.

Length 75 m; draft 6.6 m.

Type: Tug. MMSI: 205340000.

Date/timePositionNaut miles runAvg speedWind from/ knotsBaromVisibWave heightAir tempDewpointWater temp
2016-Jul-01 04:33N 53°33' E 006°42'0 0.0
2016-Jul-01 03:30N 53°33' E 006°42'0 0.0
2016-Jul-01 02:33N 53°33' E 006°42'0 0.1
2016-Jul-01 01:33N 53°33' E 006°42'0 0.0
2016-Jul-01 00:30N 53°33' E 006°42'0 0.0
2016-Jun-30 23:33N 53°33' E 006°41'0 0.0
2016-Jun-30 22:24N 53°33' E 006°41'0 0.0
2016-Jun-30 21:33N 53°33' E 006°41'0 0.0
2016-Jun-30 20:30N 53°33' E 006°42'0 0.1
2016-Jun-30 19:33N 53°33' E 006°42'0 0.1
2016-Jun-30 18:27N 53°33' E 006°42'0 0.0
2016-Jun-30 17:30N 53°33' E 006°42'0 0.1
2016-Jun-30 16:33N 53°33' E 006°42'9 9.4
2016-Jun-30 15:34N 53°37' E 006°27'1111.2
2016-Jun-30 14:33N 53°40' E 006°09'1010.4
2016-Jun-30 13:33N 53°49' E 006°01'2 1.8
2016-Jun-30 12:33N 53°50' E 005°59'0 0.0
2016-Jun-30 11:33N 53°50' E 005°59'0 0.0
2016-Jun-30 10:33N 53°50' E 005°59'0 0.1
2016-Jun-30 09:33N 53°50' E 005°59'1 0.7
2016-Jun-30 08:33N 53°51' E 005°60'0 0.0
2016-Jun-30 07:33N 53°51' E 005°60'1 0.5
2016-Jun-30 06:29N 53°51' E 005°59'0 0.0
2016-Jun-30 05:29N 53°51' E 005°59'0 0.0
2016-Jun-30 04:33N 53°51' E 005°59'0 0.0
2016-Jun-30 03:15N 53°51' E 005°59'0 0.0
2016-Jun-30 02:30N 53°51' E 005°59'0 0.0
2016-Jun-30 01:32N 53°51' E 005°59'0 0.0
2016-Jun-30 00:32N 53°51' E 005°59'0 0.0
2016-Jun-29 23:29N 53°51' E 005°59'0 0.0
2016-Jun-29 22:32N 53°51' E 005°59'0 0.0
2016-Jun-29 21:31N 53°51' E 005°59'0 0.0
2016-Jun-29 20:29N 53°51' E 005°59'0 0.0
2016-Jun-29 19:28N 53°51' E 005°59'0 0.1
2016-Jun-29 18:31N 53°51' E 005°59'0 0.0
2016-Jun-29 17:22N 53°51' E 005°59'0 0.0
2016-Jun-29 16:19N 53°51' E 005°59'0 0.0
2016-Jun-29 15:04N 53°51' E 005°59'0 0.0
2016-Jun-29 14:31N 53°51' E 005°59'0 0.0
2016-Jun-29 13:28N 53°51' E 005°59'0 0.0
2016-Jun-29 12:16N 53°51' E 005°59'0 0.0
2016-Jun-29 11:19N 53°51' E 005°59'0 0.0
2016-Jun-29 10:25N 53°51' E 005°59'0 0.0
2016-Jun-29 03:07N 53°51' E 005°59'0 0.0
2016-Jun-28 22:25N 53°51' E 005°59'0 0.0
2016-Jun-28 20:25N 53°51' E 005°59'0 0.0
2016-Jun-28 19:13N 53°51' E 005°59'0 0.0
2016-Jun-28 18:31N 53°51' E 005°59'0 0.0
2016-Jun-28 13:27N 53°51' E 005°59'1 1.0
2016-Jun-28 12:32N 53°50' E 005°59'1010.1
2016-Jun-28 11:33N 53°42' E 006°07'1110.9
2016-Jun-28 10:32N 53°37' E 006°24'1 1.0
2016-Jun-28 09:33N 53°37' E 006°23'1211.2
2016-Jun-28 08:30N 53°42' E 006°05'9 7.9
2016-Jun-28 07:25N 53°50' E 005°59'1 0.9
2016-Jun-28 06:29N 53°49' E 005°59'0 0.1
2016-Jun-28 03:15N 53°49' E 005°60'0 0.0
2016-Jun-28 02:12N 53°49' E 005°60'0 0.0
2016-Jun-28 01:18N 53°49' E 005°60'0 0.0
2016-Jun-28 00:09N 53°49' E 005°60'0 0.0
2016-Jun-27 23:24N 53°49' E 005°60'0 0.0
2016-Jun-27 20:12N 53°49' E 005°60'0 0.0
2016-Jun-27 18:24N 53°49' E 005°60'0 0.0
2016-Jun-27 16:30N 53°49' E 005°60'0 0.0
2016-Jun-27 15:33N 53°49' E 005°60'0 0.0
2016-Jun-27 14:27N 53°49' E 005°60'1 1.1
2016-Jun-27 13:33N 53°50' E 005°59'3 2.5
2016-Jun-27 12:31N 53°52' E 005°57'1 0.6
2016-Jun-27 11:31N 53°52' E 005°56'0 0.1
2016-Jun-27 10:33N 53°52' E 005°56'0 0.3
2016-Jun-27 09:32N 53°51' E 005°56'1 0.9
2016-Jun-27 08:31N 53°51' E 005°55'1 1.2
2016-Jun-27 07:32N 53°52' E 005°56'2 1.8
2016-Jun-27 06:29N 53°51' E 005°59'1 0.4
2016-Jun-27 04:07N 53°50' E 005°59'0 0.5
2016-Jun-27 03:33N 53°50' E 005°59'0 0.0
2016-Jun-27 02:32N 53°50' E 005°59'1 0.9
2016-Jun-27 01:22N 53°49' E 005°60'0 0.0
2016-Jun-26 23:28N 53°49' E 005°60'0 0.0
2016-Jun-26 22:31N 53°49' E 005°60'0 0.0
2016-Jun-26 21:28N 53°49' E 005°60'0 0.0
2016-Jun-26 20:28N 53°49' E 005°60'0 0.0
2016-Jun-26 16:31N 53°49' E 005°60'0 0.0
2016-Jun-26 13:07N 53°49' E 005°60'0 0.0
2016-Jun-26 12:31N 53°49' E 005°60'0 0.0
2016-Jun-26 10:10N 53°49' E 005°60'0 0.0
2016-Jun-26 09:22N 53°49' E 005°60'0 0.0
2016-Jun-26 00:13N 53°49' E 005°59'0 0.0
2016-Jun-25 22:31N 53°49' E 005°59'0 0.0
2016-Jun-25 21:25N 53°49' E 005°59'0 0.0
2016-Jun-25 20:19N 53°49' E 005°59'0 0.0
2016-Jun-25 18:13N 53°49' E 005°59'0 0.0
2016-Jun-25 17:19N 53°49' E 005°59'0 0.0
2016-Jun-25 16:31N 53°49' E 005°59'0 0.0
2016-Jun-25 11:25N 53°49' E 005°59'0 0.0
2016-Jun-25 10:07N 53°49' E 005°59'0 0.0
2016-Jun-25 09:28N 53°49' E 005°59'0 0.0
2016-Jun-25 08:13N 53°49' E 005°59'0 0.0
2016-Jun-25 07:31N 53°49' E 005°59'0 0.0
2016-Jun-25 06:27N 53°49' E 005°59'1 1.1
2016-Jun-25 05:23N 53°49' E 005°57'1 0.9
2016-Jun-25 04:33N 53°50' E 005°58'2 1.5
2016-Jun-25 03:33N 53°49' E 006°00'0 0.0
2016-Jun-25 02:33N 53°49' E 006°01'0 0.0
2016-Jun-25 01:27N 53°49' E 006°01'0 0.0
2016-Jun-25 00:33N 53°49' E 006°01'0 0.0
2016-Jun-24 23:30N 53°49' E 006°01'0 0.0
2016-Jun-24 22:30N 53°49' E 006°01'0 0.0
2016-Jun-24 21:30N 53°49' E 006°01'0 0.0
2016-Jun-24 20:30N 53°49' E 006°01'0 0.0
2016-Jun-24 19:27N 53°49' E 006°01'0 0.0
2016-Jun-24 18:33N 53°49' E 006°00'0 0.0
2016-Jun-24 17:27N 53°49' E 006°00'0 0.0
2016-Jun-24 15:33N 53°49' E 006°01'0 0.0
2016-Jun-24 12:33N 53°49' E 006°01'1 1.0
2016-Jun-24 11:33N 53°49' E 005°59'0 0.1
2016-Jun-24 10:32N 53°50' E 005°59'0 0.2
2016-Jun-24 09:31N 53°49' E 005°59'0 0.4
2016-Jun-24 08:33N 53°50' E 005°58'0 0.4
2016-Jun-24 07:33N 53°49' E 005°58'1 0.7
2016-Jun-24 06:32N 53°50' E 005°57'0 0.0
2016-Jun-24 04:32N 53°49' E 005°57'0 0.0
2016-Jun-24 03:32N 53°49' E 005°57'0 0.0
2016-Jun-24 02:32N 53°49' E 005°57'0 0.0
2016-Jun-24 01:25N 53°49' E 005°57'0 0.0
2016-Jun-24 00:32N 53°49' E 005°57'0 0.0
2016-Jun-23 23:17N 53°49' E 005°57'0 0.0
2016-Jun-23 22:26N 53°49' E 005°57'0 0.0
2016-Jun-23 21:32N 53°49' E 005°57'0 0.0
2016-Jun-23 20:28N 53°49' E 005°57'0 0.0
2016-Jun-23 19:32N 53°49' E 005°57'0 0.0
2016-Jun-23 18:10N 53°49' E 005°57'0 0.0
2016-Jun-23 17:25N 53°49' E 005°57'0 0.0
2016-Jun-23 16:31N 53°49' E 005°57'0 0.0
2016-Jun-23 15:22N 53°49' E 005°57'0 0.0
2016-Jun-23 14:31N 53°49' E 005°57'0 0.0
2016-Jun-23 13:32N 53°49' E 005°57'0 0.0
2016-Jun-23 12:29N 53°49' E 005°57'0 0.0
2016-Jun-23 11:23N 53°49' E 005°57'0 0.0
2016-Jun-23 10:32N 53°49' E 005°57'0 0.0
2016-Jun-23 09:32N 53°49' E 005°57'0 0.0
2016-Jun-23 08:31N 53°49' E 005°57'0 0.0
2016-Jun-23 07:31N 53°49' E 005°57'1 0.6
2016-Jun-23 05:33N 53°49' E 005°59'1 0.8
2016-Jun-23 04:33N 53°50' E 005°59'1 0.5
2016-Jun-23 03:34N 53°49' E 005°58'0 0.5
2016-Jun-23 02:33N 53°49' E 005°58'1 1.1
2016-Jun-23 01:33N 53°50' E 005°59'0 0.2
2016-Jun-23 00:33N 53°50' E 005°59'1 0.5
2016-Jun-22 23:33N 53°50' E 005°60'2 2.0
2016-Jun-22 22:33N 53°51' E 006°03'2 2.2
2016-Jun-22 21:34N 53°52' E 006°06'2 1.9
2016-Jun-22 20:34N 53°53' E 006°09'2 2.0
2016-Jun-22 19:33N 53°54' E 006°12'2 2.3
2016-Jun-22 18:33N 53°56' E 006°14'3 3.0
2016-Jun-22 17:34N 53°57' E 006°18'3 3.5
2016-Jun-22 16:33N 53°59' E 006°23'1 1.5
2016-Jun-22 15:33N 53°59' E 006°26'1 0.5
2016-Jun-22 14:33N 53°60' E 006°25'0 0.1
2016-Jun-22 13:33N 53°59' E 006°25'0 0.0
2016-Jun-22 12:33N 53°59' E 006°25'0 0.1
2016-Jun-22 11:33N 53°60' E 006°25'0 0.1
2016-Jun-22 10:33N 53°60' E 006°25'0 0.3
2016-Jun-22 09:33N 53°60' E 006°25'1 0.5
2016-Jun-22 08:33N 54°00' E 006°25'1 0.8
2016-Jun-22 07:33N 53°60' E 006°25'0 0.0
2016-Jun-22 06:32N 53°60' E 006°25'1 1.3
2016-Jun-22 05:33N 54°01' E 006°24'1 1.3
2016-Jun-22 04:33N 53°60' E 006°25'0 0.2
2016-Jun-22 03:34N 53°60' E 006°25'1 1.1
2016-Jun-22 02:28N 53°59' E 006°23'0 0.0
2016-Jun-22 01:31N 53°59' E 006°23'0 0.0
2016-Jun-22 00:31N 53°59' E 006°23'0 0.0
2016-Jun-21 23:25N 53°59' E 006°23'0 0.0
2016-Jun-21 22:31N 53°59' E 006°23'0 0.0
2016-Jun-21 21:31N 53°59' E 006°23'0 0.0
2016-Jun-21 20:31N 53°59' E 006°23'0 0.0
2016-Jun-21 19:25N 53°59' E 006°23'0 0.0
2016-Jun-21 18:22N 53°59' E 006°23'0 0.0
2016-Jun-21 17:31N 53°59' E 006°23'0 0.0
2016-Jun-21 16:19N 53°59' E 006°23'0 0.0
2016-Jun-21 15:28N 53°59' E 006°23'0 0.0
2016-Jun-21 14:25N 53°59' E 006°23'0 0.0
2016-Jun-21 13:28N 53°59' E 006°23'0 0.0
2016-Jun-21 12:31N 53°59' E 006°23'2 1.8
2016-Jun-21 11:33N 53°59' E 006°26'0 0.3
2016-Jun-21 10:33N 53°59' E 006°25'1 0.9
2016-Jun-21 09:34N 53°59' E 006°25'0 0.1
2016-Jun-21 08:33N 53°59' E 006°25'0 0.1
2016-Jun-21 07:33N 53°59' E 006°25'1 0.4
2016-Jun-21 05:33N 53°59' E 006°24'  

Dump ship's entire track history